createdAt,value
2023-04-21T00:05:23.698Z,15.95
2023-04-21T00:11:25.821Z,17.20
2023-04-21T00:17:28.168Z,17.63
2023-04-21T00:23:30.147Z,17.58
2023-04-21T00:29:31.962Z,17.70
2023-04-21T00:35:34.403Z,18.33
2023-04-21T00:41:36.977Z,18.63
2023-04-21T00:47:38.771Z,19.83
2023-04-21T00:53:41.080Z,20.40
2023-04-21T00:59:43.748Z,21.27
2023-04-21T01:05:46.698Z,21.15
2023-04-21T01:12:23.992Z,21.30
2023-04-21T01:18:25.819Z,20.85
2023-04-21T01:24:37.760Z,19.48
2023-04-21T01:30:39.744Z,20.95
2023-04-21T01:36:41.579Z,21.77
2023-04-21T01:42:45.793Z,20.70
2023-04-21T01:48:48.834Z,21.52
2023-04-21T01:54:50.743Z,22.70
2023-04-21T02:00:52.493Z,22.48
2023-04-21T02:06:54.342Z,21.80
2023-04-21T02:12:56.107Z,20.35
2023-04-21T02:18:58.125Z,19.63
2023-04-21T02:25:00.028Z,18.73
2023-04-21T02:31:01.883Z,19.48
2023-04-21T02:37:03.686Z,18.80
2023-04-21T02:43:05.459Z,18.77
2023-04-21T02:49:07.250Z,18.25
2023-04-21T02:55:09.195Z,17.23
2023-04-21T03:01:10.955Z,17.42
2023-04-21T03:07:13.806Z,15.68
2023-04-21T03:13:16.425Z,17.27
2023-04-21T03:19:18.300Z,17.00
2023-04-21T03:25:20.534Z,17.23
2023-04-21T03:31:22.278Z,17.55
2023-04-21T03:37:24.077Z,17.65
2023-04-21T03:43:25.876Z,17.33
2023-04-21T03:49:27.653Z,16.55
2023-04-21T03:55:29.570Z,16.55
2023-04-21T04:01:31.553Z,16.13
2023-04-21T04:07:33.878Z,16.45
2023-04-21T04:13:35.831Z,16.85
2023-04-21T04:19:37.695Z,17.35
2023-04-21T04:25:40.160Z,16.58
2023-04-21T04:31:42.087Z,16.38
2023-04-21T04:37:44.025Z,16.52
2023-04-21T04:43:46.609Z,17.38
2023-04-21T04:49:48.401Z,15.73
2023-04-21T04:55:50.313Z,14.10
2023-04-21T05:01:52.707Z,13.52
2023-04-21T05:07:54.568Z,13.60
2023-04-21T05:13:56.788Z,13.65
2023-04-21T05:19:58.561Z,13.20
2023-04-21T05:26:02.656Z,11.85
2023-04-21T05:32:06.074Z,12.15
2023-04-21T05:38:07.986Z,11.75
2023-04-21T05:44:09.868Z,11.13
2023-04-21T05:50:11.860Z,10.73
2023-04-21T05:56:14.214Z,10.88
2023-04-21T06:02:16.035Z,11.27
2023-04-21T06:08:17.836Z,12.05
2023-04-21T06:14:19.719Z,10.55
2023-04-21T06:20:21.671Z,11.10
2023-04-21T06:26:23.385Z,10.85
2023-04-21T06:32:25.225Z,10.90
2023-04-21T06:38:27.000Z,10.77
2023-04-21T06:44:29.422Z,11.00
2023-04-21T06:50:31.173Z,10.75
2023-04-21T06:56:33.400Z,10.60
2023-04-21T07:02:35.329Z,10.35
2023-04-21T07:08:37.399Z,10.05
2023-04-21T07:14:39.348Z,9.68
2023-04-21T07:20:41.386Z,9.15
2023-04-21T07:26:43.110Z,9.77
2023-04-21T07:32:45.133Z,9.63
2023-04-21T07:38:46.918Z,9.52
2023-04-21T07:44:49.035Z,9.40
2023-04-21T07:50:51.156Z,8.80
2023-04-21T07:56:52.832Z,8.55
2023-04-21T08:02:54.677Z,8.68
2023-04-21T08:08:56.566Z,8.50
2023-04-21T08:14:58.510Z,8.48
2023-04-21T08:21:00.596Z,7.28
2023-04-21T08:27:02.403Z,7.47
2023-04-21T08:33:04.260Z,8.32
2023-04-21T08:39:06.360Z,8.88
2023-04-21T08:45:08.892Z,7.72
2023-04-21T08:51:10.938Z,7.53
2023-04-21T08:57:15.890Z,7.25
2023-04-21T09:03:27.500Z,7.30
2023-04-21T09:09:29.345Z,7.50
2023-04-21T09:15:39.294Z,6.97
2023-04-21T09:21:44.357Z,7.05
2023-04-21T09:27:47.289Z,7.03
2023-04-21T09:34:00.454Z,6.78
2023-04-21T09:40:04.809Z,6.85
2023-04-21T09:46:07.501Z,6.63
2023-04-21T09:52:17.715Z,6.07
2023-04-21T09:58:24.585Z,6.53
2023-04-21T10:04:29.177Z,5.97
2023-04-21T10:10:32.016Z,6.00
2023-04-21T10:16:37.024Z,6.00
2023-04-21T10:22:39.772Z,5.63
2023-04-21T10:28:46.020Z,4.75
2023-04-21T10:34:49.151Z,4.47
2023-04-21T10:40:51.529Z,5.00
2023-04-21T10:46:53.992Z,4.63
2023-04-21T10:52:59.381Z,4.18
2023-04-21T10:59:01.422Z,4.03
2023-04-21T11:05:03.707Z,4.05
2023-04-21T11:11:05.705Z,3.50
2023-04-21T11:17:19.183Z,3.47
2023-04-21T11:23:20.923Z,3.33
2023-04-21T11:29:23.025Z,3.42
2023-04-21T11:35:24.841Z,3.28
2023-04-21T11:41:26.607Z,3.15
2023-04-21T11:47:28.966Z,2.88
2023-04-21T11:53:30.948Z,2.72
2023-04-21T11:59:32.780Z,2.72
2023-04-21T12:05:36.250Z,2.53
2023-04-21T12:11:38.053Z,2.50
2023-04-21T12:17:44.567Z,2.35
2023-04-21T12:23:46.411Z,2.50
2023-04-21T12:29:48.140Z,2.47
2023-04-21T12:35:49.925Z,2.45
2023-04-21T12:41:51.926Z,2.40
2023-04-21T12:47:55.060Z,2.50
2023-04-21T12:53:56.971Z,2.50
2023-04-21T12:59:58.755Z,2.50
2023-04-21T13:06:00.660Z,2.65
2023-04-21T13:12:02.784Z,3.10
2023-04-21T13:18:04.782Z,2.70
2023-04-21T13:24:06.744Z,2.67
2023-04-21T13:30:10.926Z,2.38
2023-04-21T13:36:13.272Z,3.00
2023-04-21T13:42:15.115Z,2.88
2023-04-21T13:48:16.995Z,2.60
2023-04-21T13:54:18.858Z,2.40
2023-04-21T14:00:21.006Z,2.40
2023-04-21T14:06:22.803Z,2.75
2023-04-21T14:12:26.406Z,2.95
2023-04-21T14:24:32.302Z,2.63
2023-04-21T14:30:36.302Z,2.67
2023-04-21T14:36:38.059Z,2.08
2023-04-21T14:42:41.794Z,2.65
2023-04-21T14:48:44.686Z,2.72
2023-04-21T14:54:46.589Z,2.73
2023-04-21T15:00:48.514Z,2.50
2023-04-21T15:06:52.152Z,2.65
2023-04-21T15:12:54.393Z,2.42
2023-04-21T15:18:56.239Z,2.17
2023-04-21T15:24:58.626Z,2.22
2023-04-21T15:31:00.497Z,1.88
2023-04-21T15:37:02.546Z,2.22
2023-04-21T15:43:04.662Z,2.28
2023-04-21T15:49:06.419Z,2.33
2023-04-21T15:55:08.660Z,2.22
2023-04-21T16:01:10.913Z,2.08
2023-04-21T16:07:13.013Z,7.40
2023-04-21T16:13:15.034Z,2.20
2023-04-21T16:19:17.219Z,5.10
2023-04-21T16:25:20.042Z,2.20
2023-04-21T16:31:22.099Z,2.37
2023-04-21T16:37:23.973Z,2.80
2023-04-21T16:43:26.471Z,2.17
2023-04-21T16:49:30.198Z,2.25
2023-04-21T16:55:32.100Z,2.53
2023-04-21T17:01:33.959Z,2.45
2023-04-21T17:07:36.033Z,2.40
2023-04-21T17:13:39.302Z,2.50
2023-04-21T17:19:41.494Z,2.38
2023-04-21T17:25:43.184Z,2.10
2023-04-21T17:31:45.041Z,2.38
2023-04-21T17:37:47.141Z,2.63
2023-04-21T17:43:49.118Z,2.33
2023-04-21T17:49:50.959Z,2.55
2023-04-21T17:55:53.574Z,2.53
2023-04-21T18:01:57.773Z,2.65
2023-04-21T18:08:00.696Z,2.72
2023-04-21T18:14:02.480Z,3.03
2023-04-21T18:20:05.250Z,2.78
2023-04-21T18:26:08.512Z,2.92
2023-04-21T18:32:10.471Z,2.55
2023-04-21T18:38:13.486Z,2.65
2023-04-21T18:44:16.591Z,2.43
2023-04-21T18:50:19.063Z,2.87
2023-04-21T18:56:21.003Z,2.70
2023-04-21T19:02:22.983Z,2.70
2023-04-21T19:08:40.847Z,2.83
2023-04-21T19:14:47.642Z,2.90
2023-04-21T19:20:50.198Z,2.97
2023-04-21T19:26:52.016Z,2.63
2023-04-21T19:32:55.045Z,2.80
2023-04-21T19:38:56.959Z,2.50
2023-04-21T19:44:58.935Z,2.80
2023-04-21T19:51:01.021Z,2.63
2023-04-21T19:57:02.799Z,2.60
2023-04-21T20:03:06.595Z,3.08
2023-04-21T20:09:10.313Z,2.53
2023-04-21T20:15:12.916Z,3.35
2023-04-21T20:21:14.779Z,2.58
2023-04-21T20:27:16.587Z,2.55
2023-04-21T20:33:18.407Z,2.88
2023-04-21T20:39:21.507Z,2.60
2023-04-21T20:45:23.252Z,2.47
2023-04-21T20:51:26.714Z,2.40
2023-04-21T20:57:28.610Z,2.65
2023-04-21T21:03:30.827Z,3.05
2023-04-21T21:09:32.816Z,2.80
2023-04-21T21:15:35.267Z,3.05
2023-04-21T21:21:36.953Z,2.58
2023-04-21T21:27:38.777Z,2.60
2023-04-21T21:33:40.545Z,2.60
2023-04-21T21:39:42.253Z,3.17
2023-04-21T21:45:44.414Z,2.60
2023-04-21T21:51:46.336Z,2.55
2023-04-21T21:57:48.118Z,2.90
2023-04-21T22:03:50.176Z,2.80
2023-04-21T22:09:52.514Z,2.75
2023-04-21T22:15:54.496Z,2.90
2023-04-21T22:21:56.520Z,2.50
2023-04-21T22:27:58.440Z,3.00
2023-04-21T22:34:00.237Z,2.67
2023-04-21T22:40:02.036Z,2.90
2023-04-21T22:46:03.914Z,2.53
2023-04-21T22:52:05.951Z,3.22
2023-04-21T22:58:07.787Z,3.00
2023-04-21T23:04:09.776Z,2.78
2023-04-21T23:10:11.718Z,2.97
2023-04-21T23:16:13.525Z,2.97
2023-04-21T23:22:15.334Z,2.70
2023-04-21T23:28:17.188Z,2.55
2023-04-21T23:34:19.160Z,3.03
2023-04-21T23:40:21.009Z,3.15
2023-04-21T23:46:22.859Z,3.03
2023-04-21T23:52:25.006Z,2.75
2023-04-21T23:58:26.797Z,2.92
